Time;durP1;ratioP1;P1;durP2;ratioP2;P2;SDS_P1;SDS_P2;PMS_P1;PMS_P2;Temp;Humidity;BMP_temperature;BMP_pressure;BME280_temperature;BME280_humidity;BME280_pressure;Samples;Min_cycle;Max_cycle;Signal;HPM_P1;HPM_P2
2022/08/20 00:01:13;;;;;;;15.27;7.00;;;23.90;99.90;;;;;;4822682;29;20395;-80
2022/08/20 00:03:41;;;;;;;11.63;6.30;;;24.10;99.90;;;;;;4813457;29;20060;-80
2022/08/20 00:06:19;;;;;;;14.95;6.57;;;24.10;99.90;;;;;;4844814;29;20089;-80
2022/08/20 00:08:46;;;;;;;11.35;6.95;;;24.10;99.90;;;;;;4828588;29;20147;-80
2022/08/20 00:11:24;;;;;;;11.23;5.72;;;24.10;99.90;;;;;;4826535;29;20057;-80
2022/08/20 00:13:58;;;;;;;15.57;7.33;;;24.10;99.90;;;;;;4821974;29;20401;-81
2022/08/20 00:16:31;;;;;;;14.10;6.70;;;24.00;99.90;;;;;;4848103;29;20088;-81
2022/08/20 00:18:59;;;;;;;12.93;6.45;;;24.10;99.90;;;;;;4827968;29;20041;-81
2022/08/20 00:21:27;;;;;;;11.15;6.90;;;24.10;99.90;;;;;;4833082;29;20103;-81
2022/08/20 00:23:58;;;;;;;11.95;7.07;;;23.60;99.90;;;;;;4824504;29;20046;-81
2022/08/20 00:26:25;;;;;;;12.25;6.25;;;23.80;99.90;;;;;;4829751;29;20052;-81
2022/08/20 00:28:53;;;;;;;12.10;6.22;;;23.90;99.90;;;;;;4813553;29;20054;-82
2022/08/20 00:31:22;;;;;;;15.85;6.70;;;24.00;99.90;;;;;;4844754;29;20073;-82
2022/08/20 00:33:50;;;;;;;11.85;6.47;;;24.00;99.90;;;;;;4811271;29;20050;-82
2022/08/20 00:36:17;;;;;;;12.50;6.45;;;24.10;99.90;;;;;;4812963;29;20128;-81
2022/08/20 00:38:45;;;;;;;13.80;6.82;;;24.10;99.90;;;;;;4824417;29;20483;-81
2022/08/20 00:41:20;;;;;;;13.68;6.78;;;24.00;99.90;;;;;;4827698;29;20141;-81
2022/08/20 00:44:06;;;;;;;12.73;6.68;;;23.70;99.90;;;;;;4828389;29;20137;-82
2022/08/20 00:46:34;;;;;;;9.43;5.88;;;23.60;99.90;;;;;;4806222;29;20132;-82
2022/08/20 00:49:06;;;;;;;12.18;6.57;;;23.70;99.90;;;;;;4825293;29;20054;-80
2022/08/20 00:51:37;;;;;;;;;;;23.70;99.90;;;;;;4827975;29;20050;-82
2022/08/20 00:54:14;;;;;;;12.68;6.50;;;23.40;99.90;;;;;;4813421;29;20121;-81
2022/08/20 00:56:43;;;;;;;10.27;6.63;;;23.50;99.90;;;;;;4813077;29;20054;-80
2022/08/20 00:59:16;;;;;;;16.42;6.82;;;23.50;99.90;;;;;;4828933;29;20050;-80
2022/08/20 01:01:45;;;;;;;11.85;6.70;;;23.70;99.90;;;;;;4823767;29;20489;-82
2022/08/20 01:04:30;;;;;;;10.57;6.47;;;23.40;99.90;;;;;;4828709;29;20386;-81
2022/08/20 01:06:57;;;;;;;11.48;6.72;;;23.40;99.90;;;;;;4827580;29;20577;-81
2022/08/20 01:09:24;;;;;;;15.52;7.25;;;23.50;99.90;;;;;;4827112;29;20074;-80
2022/08/20 01:12:13;;;;;;;11.73;5.93;;;23.40;99.90;;;;;;4831265;29;20061;-81
2022/08/20 01:14:43;;;;;;;11.63;6.32;;;23.30;99.90;;;;;;4812339;29;20060;-81
2022/08/20 01:17:17;;;;;;;14.70;6.35;;;23.50;99.90;;;;;;4844044;29;20054;-82
2022/08/20 01:20:19;;;;;;;11.27;5.82;;;23.40;99.90;;;;;;4826676;29;20083;-80
2022/08/20 01:23:29;;;;;;;15.07;5.95;;;23.40;99.90;;;;;;4804803;29;20046;-81
2022/08/20 01:26:37;;;;;;;12.32;5.65;;;23.40;99.90;;;;;;4833342;29;20053;-80
2022/08/20 01:29:12;;;;;;;12.63;5.68;;;23.50;99.90;;;;;;4841336;29;20134;-81
2022/08/20 01:31:41;;;;;;;12.57;6.15;;;23.30;99.90;;;;;;4841697;29;20054;-82
2022/08/20 01:34:13;;;;;;;9.25;5.82;;;23.30;99.90;;;;;;4811288;29;20145;-81
2022/08/20 01:36:45;;;;;;;9.88;6.32;;;23.40;99.90;;;;;;4825229;29;20070;-81
2022/08/20 01:39:16;;;;;;;9.35;5.43;;;23.40;99.90;;;;;;4827751;29;20046;-82
2022/08/20 01:42:16;;;;;;;10.57;5.13;;;23.50;99.90;;;;;;4827921;29;20545;-81
2022/08/20 01:44:44;;;;;;;10.48;4.88;;;23.50;99.90;;;;;;4825958;29;20049;-81
2022/08/20 01:47:17;;;;;;;11.65;5.80;;;23.30;99.90;;;;;;4826088;29;20041;-81
2022/08/20 01:49:51;;;;;;;9.50;5.15;;;23.40;99.90;;;;;;4840661;29;20053;-81
2022/08/20 01:52:45;;;;;;;17.90;7.10;;;23.40;99.90;;;;;;4813953;29;20061;-80
2022/08/20 01:55:12;;;;;;;10.45;5.72;;;23.40;99.90;;;;;;4833871;29;20138;-79
2022/08/20 01:57:40;;;;;;;11.10;5.63;;;23.40;99.90;;;;;;4826755;29;20048;-80
2022/08/20 02:00:14;;;;;;;16.42;7.18;;;23.50;99.90;;;;;;4826642;29;20081;-80
2022/08/20 02:02:48;;;;;;;11.70;5.70;;;23.30;99.90;;;;;;4841809;29;20114;-79
2022/08/20 02:05:16;;;;;;;11.60;6.30;;;23.30;99.90;;;;;;4842448;29;20046;-78
2022/08/20 02:07:44;;;;;;;15.25;5.80;;;23.20;99.90;;;;;;4811067;29;20068;-81
2022/08/20 02:10:14;;;;;;;13.77;5.57;;;23.10;99.90;;;;;;4841630;29;20065;-80
2022/08/20 02:12:41;;;;;;;12.55;6.65;;;23.00;99.90;;;;;;4842560;29;20042;-79
2022/08/20 02:15:10;;;;;;;11.02;5.45;;;23.20;99.90;;;;;;4831589;29;20052;-79
2022/08/20 02:17:38;;;;;;;9.50;5.05;;;23.20;99.90;;;;;;4837491;29;20562;-80
2022/08/20 02:20:13;;;;;;;10.25;4.95;;;23.20;99.90;;;;;;4830774;29;20408;-80
2022/08/20 02:22:48;;;;;;;11.77;4.97;;;23.30;99.90;;;;;;4824218;29;20122;-80
2022/08/20 02:25:18;;;;;;;7.90;4.78;;;23.30;99.90;;;;;;4809906;29;20150;-80
2022/08/20 02:27:47;;;;;;;12.13;5.15;;;23.20;99.90;;;;;;4837960;29;20060;-79
2022/08/20 02:30:21;;;;;;;13.68;5.20;;;23.30;99.90;;;;;;4821803;29;20054;-79
2022/08/20 02:32:55;;;;;;;13.70;5.03;;;23.40;99.90;;;;;;4842662;29;20046;-79
2022/08/20 02:35:25;;;;;;;10.75;5.80;;;23.40;99.90;;;;;;4811261;29;21201;-79
2022/08/20 02:37:52;;;;;;;11.80;4.88;;;23.40;99.90;;;;;;4842611;29;20110;-79
2022/08/20 02:40:23;;;;;;;10.30;4.90;;;23.30;99.90;;;;;;4842124;29;20049;-79
2022/08/20 02:43:00;;;;;;;12.75;4.90;;;23.30;99.90;;;;;;4827078;29;20050;-79
2022/08/20 02:45:34;;;;;;;13.32;4.75;;;23.40;99.90;;;;;;4825278;29;20509;-79
2022/08/20 02:48:03;;;;;;;14.13;6.18;;;23.40;99.90;;;;;;4824702;29;20158;-79
2022/08/20 02:50:30;;;;;;;8.77;4.68;;;23.40;99.90;;;;;;4824521;29;20057;-79
2022/08/20 02:52:57;;;;;;;9.48;5.82;;;23.40;99.90;;;;;;4840908;29;20107;-79
2022/08/20 02:55:25;;;;;;;11.73;4.93;;;23.50;99.90;;;;;;4837929;29;21079;-79
2022/08/20 02:57:58;;;;;;;10.50;5.30;;;23.40;99.90;;;;;;4825865;29;20072;-80
2022/08/20 03:00:30;;;;;;;10.45;5.15;;;23.40;99.90;;;;;;4839982;29;20054;-80
2022/08/20 03:03:08;;;;;;;14.75;5.45;;;23.30;99.90;;;;;;4838705;29;20046;-80
2022/08/20 03:05:38;;;;;;;11.40;5.20;;;23.40;99.90;;;;;;4823506;29;20060;-80
2022/08/20 03:08:07;;;;;;;12.15;5.35;;;23.30;99.90;;;;;;4817410;29;20053;-80
2022/08/20 03:10:36;;;;;;;9.13;4.57;;;23.30;99.90;;;;;;4824990;29;20122;-80
2022/08/20 03:13:05;;;;;;;9.82;4.57;;;23.30;99.90;;;;;;4811740;29;20462;-80
2022/08/20 03:15:33;;;;;;;15.90;5.53;;;23.30;99.90;;;;;;4843737;29;20042;-80
2022/08/20 03:18:00;;;;;;;10.93;4.97;;;23.30;99.90;;;;;;4827541;29;20533;-80
2022/08/20 03:20:28;;;;;;;8.95;5.07;;;23.30;99.90;;;;;;4840342;29;20592;-80
2022/08/20 03:22:56;;;;;;;9.82;5.18;;;23.20;99.90;;;;;;4813604;29;20056;-80
2022/08/20 03:25:24;;;;;;;10.40;5.40;;;23.20;99.90;;;;;;4844926;29;20294;-80
2022/08/20 03:27:53;;;;;;;9.18;4.88;;;23.20;99.90;;;;;;4814429;29;20042;-80
2022/08/20 03:30:22;;;;;;;12.75;5.15;;;23.30;99.90;;;;;;4844161;29;20649;-80
2022/08/20 03:32:50;;;;;;;13.63;5.90;;;23.30;99.90;;;;;;4827407;29;20068;-80
2022/08/20 03:35:19;;;;;;;11.15;5.50;;;23.20;99.90;;;;;;4828026;29;20042;-80
2022/08/20 03:37:47;;;;;;;15.02;5.30;;;22.90;99.90;;;;;;4828866;29;20066;-80
2022/08/20 03:40:23;;;;;;;10.85;4.85;;;22.80;99.90;;;;;;4828454;29;20098;-80
2022/08/20 03:42:51;;;;;;;11.85;6.30;;;22.90;99.90;;;;;;4835268;29;20056;-80
2022/08/20 03:45:20;;;;;;;10.77;4.93;;;22.90;99.90;;;;;;4812774;29;20060;-80
2022/08/20 03:47:48;;;;;;;10.13;5.20;;;23.10;99.90;;;;;;4843141;29;20075;-80
2022/08/20 03:50:16;;;;;;;10.35;5.75;;;23.10;99.90;;;;;;4825230;29;20042;-80
2022/08/20 03:52:50;;;;;;;16.05;6.20;;;23.10;99.90;;;;;;4827264;29;20058;-80
2022/08/20 03:55:21;;;;;;;10.50;5.88;;;23.10;99.90;;;;;;4824025;29;20444;-80
2022/08/20 03:57:51;;;;;;;10.73;4.55;;;23.10;99.90;;;;;;4812704;29;20061;-80
2022/08/20 04:00:34;;;;;;;11.40;5.50;;;23.10;99.90;;;;;;4839346;29;20043;-80
2022/08/20 04:03:02;;;;;;;14.05;5.97;;;22.80;99.90;;;;;;4822482;29;20090;-80
2022/08/20 04:05:30;;;;;;;13.43;5.53;;;22.90;99.90;;;;;;4841215;29;20046;-80
2022/08/20 04:07:59;;;;;;;10.45;5.10;;;23.00;99.90;;;;;;4835690;29;20046;-80
2022/08/20 04:10:29;;;;;;;;;;;23.10;99.90;;;;;;4814924;29;20049;-80
2022/08/20 04:12:58;;;;;;;10.10;5.25;;;23.00;99.90;;;;;;4812608;29;20288;-80
2022/08/20 04:15:27;;;;;;;10.45;5.68;;;23.10;99.90;;;;;;4823260;29;20963;-80
2022/08/20 04:17:54;;;;;;;14.02;6.65;;;23.00;99.90;;;;;;4827401;29;20421;-80
2022/08/20 04:20:24;;;;;;;13.50;6.57;;;22.70;99.90;;;;;;4812921;29;20102;-80
2022/08/20 04:22:56;;;;;;;13.15;5.60;;;22.80;99.90;;;;;;4826401;29;20501;-80
2022/08/20 04:25:27;;;;;;;12.15;6.18;;;22.70;99.90;;;;;;4820002;29;20146;-80
2022/08/20 04:27:57;;;;;;;10.98;5.13;;;22.90;99.90;;;;;;4839543;29;20507;-80
2022/08/20 04:30:25;;;;;;;14.85;6.30;;;22.90;99.90;;;;;;4835425;29;20085;-80
2022/08/20 04:32:53;;;;;;;10.77;5.50;;;23.00;99.90;;;;;;4840146;29;20393;-80
2022/08/20 04:35:24;;;;;;;13.80;6.10;;;23.00;99.90;;;;;;4822953;29;21015;-80
2022/08/20 04:38:05;;;;;;;15.85;5.63;;;23.10;99.90;;;;;;4843381;29;20501;-80
2022/08/20 04:43:37;;;;;;;9.00;6.07;;;23.10;99.90;;;;;;4841553;29;20054;-80
2022/08/20 04:46:10;;;;;;;12.25;5.78;;;22.80;99.90;;;;;;4841484;29;20061;-80
2022/08/20 04:48:40;;;;;;;11.93;6.03;;;22.70;99.90;;;;;;4826971;29;20058;-80
2022/08/20 04:51:17;;;;;;;10.80;5.25;;;22.40;99.90;;;;;;4825235;29;20058;-80
2022/08/20 04:53:45;;;;;;;12.52;5.88;;;22.20;99.90;;;;;;4823600;29;20045;-80
2022/08/20 04:56:22;;;;;;;10.70;5.68;;;22.50;99.90;;;;;;4834943;29;20041;-80
2022/08/20 04:58:51;;;;;;;11.32;5.22;;;22.60;99.90;;;;;;4809784;29;20054;-80
2022/08/20 05:01:19;;;;;;;10.60;5.40;;;22.80;99.90;;;;;;4826892;29;20145;-80
2022/08/20 05:03:46;;;;;;;13.07;5.18;;;22.90;99.90;;;;;;4843528;29;20514;-80
2022/08/20 05:06:15;;;;;;;9.77;5.57;;;22.90;99.90;;;;;;4820756;29;20046;-80
2022/08/20 05:08:43;;;;;;;9.77;5.03;;;23.00;99.90;;;;;;4824113;29;20078;-80
2022/08/20 05:11:10;;;;;;;10.02;5.60;;;23.00;99.90;;;;;;4823362;29;20046;-80
2022/08/20 05:13:57;;;;;;;11.15;5.47;;;23.00;99.90;;;;;;4841749;29;20054;-80
2022/08/20 05:16:24;;;;;;;12.20;5.15;;;23.00;99.90;;;;;;4841956;29;20050;-80
2022/08/20 05:18:51;;;;;;;10.93;4.60;;;23.00;99.90;;;;;;4842150;29;20114;-80
2022/08/20 05:21:20;;;;;;;9.73;4.93;;;23.10;99.90;;;;;;4820694;29;20046;-80
2022/08/20 05:23:47;;;;;;;15.43;5.50;;;23.10;99.90;;;;;;4826270;29;20172;-80
2022/08/20 05:26:18;;;;;;;12.02;4.90;;;23.20;99.90;;;;;;4826577;29;20106;-80
2022/08/20 05:28:47;;;;;;;10.95;5.22;;;23.10;99.90;;;;;;4840813;29;20486;-80
2022/08/20 05:31:27;;;;;;;12.65;4.75;;;23.10;99.90;;;;;;4812138;29;20110;-80
2022/08/20 05:34:10;;;;;;;12.60;4.88;;;23.10;99.90;;;;;;4826651;29;20046;-80
2022/08/20 05:36:41;;;;;;;13.65;5.32;;;23.10;99.90;;;;;;4842055;29;20077;-80
2022/08/20 05:39:09;;;;;;;14.02;5.40;;;23.10;99.90;;;;;;4825412;29;20046;-80
2022/08/20 05:41:38;;;;;;;13.98;5.13;;;23.20;99.90;;;;;;4825873;29;20410;-80
2022/08/20 05:44:09;;;;;;;14.98;5.57;;;23.10;99.90;;;;;;4842355;29;20494;-80
2022/08/20 05:46:39;;;;;;;8.35;4.88;;;23.20;99.90;;;;;;4824408;29;20081;-80
2022/08/20 05:49:08;;;;;;;12.05;5.30;;;23.20;99.90;;;;;;4810970;29;20060;-80
2022/08/20 05:51:36;;;;;;;9.20;5.07;;;23.20;99.90;;;;;;4838185;29;20056;-80
2022/08/20 05:54:04;;;;;;;8.90;4.70;;;23.20;99.90;;;;;;4843325;29;20084;-79
2022/08/20 05:56:32;;;;;;;12.27;5.47;;;23.20;99.90;;;;;;4823818;29;20414;-80
2022/08/20 05:59:02;;;;;;;14.32;5.63;;;23.00;99.90;;;;;;4811680;29;20077;-80
2022/08/20 06:01:31;;;;;;;11.05;5.38;;;23.10;99.90;;;;;;4825719;29;20141;-80
2022/08/20 06:06:43;;;;;;;13.32;5.30;;;23.60;99.90;;;;;;4842838;29;20050;-80
2022/08/20 06:09:15;;;;;;;12.18;5.70;;;23.60;99.90;;;;;;4839536;29;20137;-79
2022/08/20 06:12:04;;;;;;;11.15;4.65;;;23.70;99.90;;;;;;4824492;29;20069;-79
2022/08/20 06:14:32;;;;;;;9.75;5.55;;;24.00;99.90;;;;;;4833215;29;20060;-80
2022/08/20 06:17:10;;;;;;;12.07;5.30;;;24.10;99.90;;;;;;4842969;29;20045;-80
2022/08/20 06:19:40;;;;;;;10.98;4.70;;;24.10;99.90;;;;;;4841435;29;20064;-78
2022/08/20 06:22:11;;;;;;;15.15;4.68;;;24.10;99.90;;;;;;4836615;29;20062;-78
2022/08/20 06:24:51;;;;;;;9.48;4.50;;;24.30;99.90;;;;;;4839158;29;20034;-79
2022/08/20 06:27:19;;;;;;;11.07;4.50;;;24.50;99.90;;;;;;4809627;29;20057;-78
2022/08/20 06:29:48;;;;;;;8.00;3.83;;;24.60;99.90;;;;;;4835410;29;20050;-79
2022/08/20 06:32:17;;;;;;;8.43;3.85;;;24.40;99.90;;;;;;4842283;29;20050;-79
2022/08/20 06:34:44;;;;;;;10.25;3.70;;;24.50;99.90;;;;;;4830624;29;20386;-79
2022/08/20 06:37:19;;;;;;;8.90;4.60;;;24.50;99.90;;;;;;4828144;29;20735;-79
2022/08/20 06:39:46;;;;;;;9.68;4.00;;;24.40;99.90;;;;;;4819891;29;20137;-79
2022/08/20 06:42:13;;;;;;;9.20;4.18;;;24.40;99.90;;;;;;4841581;29;20050;-79
2022/08/20 06:44:50;;;;;;;7.10;4.30;;;24.40;99.90;;;;;;4826191;29;20102;-79
2022/08/20 06:47:19;;;;;;;9.93;3.75;;;24.40;99.90;;;;;;4825685;29;20421;-79
2022/08/20 06:49:47;;;;;;;8.07;3.70;;;24.40;99.90;;;;;;4829981;29;20105;-79
2022/08/20 06:52:17;;;;;;;9.85;4.25;;;24.30;99.90;;;;;;4829176;29;20505;-80
2022/08/20 06:54:45;;;;;;;8.60;3.75;;;24.30;99.90;;;;;;4829779;29;20153;-79
2022/08/20 06:57:12;;;;;;;9.48;4.28;;;24.30;99.90;;;;;;4831523;29;20045;-79
2022/08/20 06:59:41;;;;;;;10.93;4.72;;;24.40;99.90;;;;;;4816177;29;20050;-80
2022/08/20 07:02:08;;;;;;;9.13;4.95;;;24.40;99.90;;;;;;4841051;29;20041;-79
2022/08/20 07:04:36;;;;;;;9.75;5.07;;;24.30;99.90;;;;;;4842649;29;20064;-80
2022/08/20 07:07:03;;;;;;;13.60;5.60;;;24.30;99.90;;;;;;4829786;29;20137;-80
2022/08/20 07:09:30;;;;;;;9.02;3.97;;;24.30;99.90;;;;;;4843039;29;20137;-80
2022/08/20 07:11:57;;;;;;;13.48;4.70;;;24.30;99.90;;;;;;4847199;29;20106;-79
2022/08/20 07:14:26;;;;;;;11.65;3.90;;;24.20;99.90;;;;;;4820422;29;20070;-79
2022/08/20 07:16:53;;;;;;;8.25;3.10;;;24.20;99.90;;;;;;4838962;29;20133;-79
2022/08/20 07:19:20;;;;;;;7.20;3.33;;;24.20;99.90;;;;;;4811032;29;20038;-78
2022/08/20 07:21:48;;;;;;;9.38;4.38;;;24.20;99.90;;;;;;4821089;29;20050;-79
2022/08/20 07:24:15;;;;;;;8.20;3.97;;;24.10;99.90;;;;;;4827321;29;20137;-79
2022/08/20 07:26:42;;;;;;;6.78;3.97;;;24.10;99.90;;;;;;4825147;29;20056;-79
2022/08/20 07:29:10;;;;;;;8.02;3.55;;;24.10;99.90;;;;;;4827358;29;20581;-79
2022/08/20 07:34:22;;;;;;;8.07;3.05;;;23.90;99.90;;;;;;4841334;29;20053;-79
2022/08/20 07:36:49;;;;;;;9.73;3.45;;;23.90;99.90;;;;;;4839037;29;20068;-79
2022/08/20 07:39:17;;;;;;;8.27;4.00;;;23.90;99.90;;;;;;4825967;29;20053;-79
2022/08/20 07:42:01;;;;;;;9.57;3.53;;;23.90;99.90;;;;;;4840262;29;20476;-80
2022/08/20 07:44:29;;;;;;;10.18;3.40;;;23.90;99.90;;;;;;4841739;29;20102;-80
2022/08/20 07:47:00;;;;;;;7.30;3.20;;;23.90;99.90;;;;;;4841773;29;20110;-81
2022/08/20 07:49:28;;;;;;;8.98;3.25;;;23.80;99.90;;;;;;4838227;29;20042;-80
2022/08/20 07:51:57;;;;;;;9.65;4.72;;;23.70;99.90;;;;;;4825996;29;20054;-80
2022/08/20 07:54:24;;;;;;;11.70;5.13;;;23.50;99.90;;;;;;4813395;29;20445;-82
2022/08/20 07:57:01;;;;;;;13.13;4.97;;;23.40;99.90;;;;;;4827033;29;20038;-81
2022/08/20 07:59:29;;;;;;;11.52;5.53;;;23.30;99.90;;;;;;4825069;29;20132;-78
2022/08/20 08:01:57;;;;;;;10.23;5.05;;;23.40;99.90;;;;;;4784412;29;20213;-78
2022/08/20 08:04:24;;;;;;;15.27;5.20;;;23.20;99.90;;;;;;4794281;29;20055;-77
2022/08/20 08:06:51;;;;;;;13.38;4.13;;;23.10;99.90;;;;;;4775295;29;20051;-77
2022/08/20 08:09:18;;;;;;;12.25;4.38;;;23.00;99.90;;;;;;4779046;29;20065;-77
2022/08/20 08:11:48;;;;;;;13.48;3.58;;;23.00;99.90;;;;;;4761027;29;20051;-77
2022/08/20 08:14:23;;;;;;;10.52;3.70;;;23.00;99.90;;;;;;4777306;29;20058;-77
2022/08/20 08:16:53;;;;;;;11.98;3.78;;;22.90;99.90;;;;;;4777550;29;20063;-77
2022/08/20 08:19:20;;;;;;;8.15;2.83;;;22.80;99.90;;;;;;4771895;29;20047;-76
2022/08/20 08:21:48;;;;;;;12.90;3.72;;;22.80;99.90;;;;;;4790399;29;20065;-77
2022/08/20 08:24:16;;;;;;;10.18;3.88;;;22.80;99.90;;;;;;4772008;30;20584;-77
2022/08/20 08:26:49;;;;;;;11.23;3.33;;;22.90;99.90;;;;;;4770726;30;20534;-78
2022/08/20 08:29:16;;;;;;;8.20;2.97;;;22.80;99.90;;;;;;4788815;30;20059;-77
2022/08/20 08:31:43;;;;;;;10.48;3.53;;;22.70;99.90;;;;;;4772835;30;20043;-77
2022/08/20 08:34:13;;;;;;;12.35;3.90;;;22.70;99.90;;;;;;4842649;29;20053;-77
2022/08/20 08:36:42;;;;;;;10.90;3.88;;;22.50;99.90;;;;;;4839943;29;20054;-76
2022/08/20 08:39:11;;;;;;;9.75;2.88;;;22.50;99.90;;;;;;4835748;29;20213;-76
2022/08/20 08:41:48;;;;;;;13.05;4.22;;;22.30;99.90;;;;;;4822004;29;20065;-75
2022/08/20 08:44:22;;;;;;;11.32;3.80;;;22.30;99.90;;;;;;4841605;29;20052;-76
2022/08/20 08:46:59;;;;;;;10.43;4.00;;;22.20;99.90;;;;;;4825542;29;20054;-76
2022/08/20 08:49:30;;;;;;;9.60;4.50;;;22.40;99.90;;;;;;4817145;29;20429;-76
2022/08/20 08:52:40;;;;;;;12.25;4.18;;;22.50;99.90;;;;;;4839489;29;20048;-76
2022/08/20 08:55:15;;;;;;;14.40;4.07;;;22.50;99.90;;;;;;4767805;30;20083;-75
2022/08/20 08:57:42;;;;;;;10.55;4.25;;;22.60;99.90;;;;;;4815809;29;20038;-74
2022/08/20 09:00:15;;;;;;;7.80;3.55;;;22.50;99.90;;;;;;4827152;29;20494;-75
2022/08/20 09:03:11;;;;;;;10.02;3.83;;;22.60;99.90;;;;;;4834816;29;20045;-75
2022/08/20 09:05:52;;;;;;;9.27;3.70;;;22.50;99.90;;;;;;4839996;29;20401;-73
2022/08/20 09:08:25;;;;;;;11.23;3.55;;;22.50;99.90;;;;;;4841926;29;20052;-74
2022/08/20 09:10:52;;;;;;;10.45;3.28;;;22.40;99.90;;;;;;4837901;29;20052;-74
2022/08/20 09:13:19;;;;;;;8.65;3.53;;;22.30;99.90;;;;;;4823134;29;20054;-75
2022/08/20 09:15:47;;;;;;;7.93;3.50;;;22.10;99.90;;;;;;4839920;29;20046;-74
2022/08/20 09:18:14;;;;;;;16.00;4.40;;;21.80;99.90;;;;;;4837987;29;20066;-74
2022/08/20 09:20:41;;;;;;;11.00;4.03;;;21.90;99.90;;;;;;4832990;29;20494;-72
2022/08/20 09:23:08;;;;;;;16.17;4.28;;;22.00;99.90;;;;;;4818725;29;20042;-72
2022/08/20 09:25:35;;;;;;;10.93;4.15;;;21.90;99.90;;;;;;4831330;29;20140;-73
2022/08/20 09:28:02;;;;;;;15.20;5.05;;;21.80;99.90;;;;;;4823560;29;20049;-74
2022/08/20 09:30:30;;;;;;;11.27;3.83;;;21.80;99.90;;;;;;4823896;29;20092;-74
2022/08/20 09:32:58;;;;;;;9.02;3.75;;;21.90;99.90;;;;;;4821825;29;20048;-74
2022/08/20 09:35:27;;;;;;;9.07;4.38;;;21.90;99.90;;;;;;4822127;29;20061;-74
2022/08/20 09:37:54;;;;;;;12.25;4.47;;;21.60;99.90;;;;;;4842188;29;20120;-74
2022/08/20 09:40:21;;;;;;;10.13;4.63;;;21.00;99.90;;;;;;4825962;29;20085;-74
2022/08/20 09:42:50;;;;;;;8.35;3.97;;;21.20;99.90;;;;;;4838141;29;20137;-74
2022/08/20 09:45:18;;;;;;;13.43;5.28;;;20.70;99.90;;;;;;4820439;29;20054;-74
2022/08/20 09:47:45;;;;;;;12.70;4.68;;;20.50;99.90;;;;;;4839992;29;20345;-73
2022/08/20 09:50:21;;;;;;;13.82;5.10;;;20.50;99.90;;;;;;4834862;29;20050;-74
2022/08/20 09:52:52;;;;;;;9.68;4.60;;;20.50;99.90;;;;;;4841791;29;20049;-75
2022/08/20 09:55:38;;;;;;;8.07;3.75;;;20.70;99.90;;;;;;4836309;29;20468;-74
2022/08/20 09:58:28;;;;;;;8.13;3.65;;;20.70;99.90;;;;;;4818701;29;20045;-73
2022/08/20 10:00:58;;;;;;;9.93;4.00;;;20.70;99.90;;;;;;4832966;29;20046;-74
2022/08/20 10:03:25;;;;;;;9.70;3.95;;;20.90;99.90;;;;;;4811379;29;20046;-74
2022/08/20 10:05:52;;;;;;;10.60;4.00;;;21.40;99.90;;;;;;4829005;29;20045;-74
2022/08/20 10:08:19;;;;;;;8.18;3.00;;;21.70;99.90;;;;;;4813478;29;20443;-73
2022/08/20 10:10:46;;;;;;;9.57;4.53;;;22.00;99.90;;;;;;4819503;29;20084;-73
2022/08/20 10:13:13;;;;;;;8.25;3.10;;;22.20;99.90;;;;;;4808435;29;20413;-73
2022/08/20 10:15:41;;;;;;;11.13;3.17;;;22.10;99.90;;;;;;4824920;29;20061;-74
2022/08/20 10:18:09;;;;;;;12.00;2.90;;;22.00;99.90;;;;;;4830740;29;20137;-74
2022/08/20 10:20:38;;;;;;;11.88;3.90;;;21.90;99.90;;;;;;4829455;29;20094;-74
2022/08/20 10:23:06;;;;;;;9.80;4.03;;;22.00;99.90;;;;;;4828330;29;20052;-74
2022/08/20 10:25:34;;;;;;;9.70;2.97;;;22.10;99.90;;;;;;4834762;29;20050;-73
2022/08/20 10:28:02;;;;;;;8.82;3.25;;;22.20;99.90;;;;;;4814360;29;20053;-74
2022/08/20 10:30:29;;;;;;;5.78;2.92;;;22.30;99.90;;;;;;4809374;29;20047;-75
2022/08/20 10:32:56;;;;;;;7.15;2.45;;;22.20;99.90;;;;;;4834431;29;20045;-74
2022/08/20 10:35:23;;;;;;;6.50;2.60;;;22.00;99.90;;;;;;4811872;29;20077;-74
2022/08/20 10:37:50;;;;;;;6.65;2.83;;;22.10;99.90;;;;;;4813679;29;20042;-74
2022/08/20 10:40:18;;;;;;;8.25;3.03;;;22.20;99.90;;;;;;4832006;29;20553;-74
2022/08/20 10:42:45;;;;;;;7.47;3.17;;;22.40;99.90;;;;;;4833089;29;20038;-75
2022/08/20 10:45:14;;;;;;;8.85;3.10;;;22.40;99.90;;;;;;4834152;29;20418;-74
2022/08/20 10:47:43;;;;;;;7.47;2.75;;;22.50;99.90;;;;;;4833768;29;20077;-74
2022/08/20 10:50:13;;;;;;;5.00;2.53;;;22.60;99.90;;;;;;4814845;29;20510;-75
2022/08/20 10:52:40;;;;;;;10.38;3.17;;;22.60;99.90;;;;;;4816333;29;20409;-74
2022/08/20 10:55:08;;;;;;;7.88;3.10;;;22.60;99.90;;;;;;4811525;29;20050;-74
2022/08/20 10:57:39;;;;;;;8.48;2.95;;;22.70;99.90;;;;;;4832517;29;20050;-75
2022/08/20 11:00:08;;;;;;;9.52;3.15;;;22.90;99.90;;;;;;4829612;29;20060;-74
2022/08/20 11:02:36;;;;;;;9.50;3.72;;;23.00;99.90;;;;;;4824651;29;20048;-76
2022/08/20 11:05:05;;;;;;;8.07;2.63;;;22.90;99.90;;;;;;4813377;29;20054;-75
2022/08/20 11:07:35;;;;;;;5.38;2.80;;;22.90;99.90;;;;;;4811769;29;20050;-76
2022/08/20 11:10:24;;;;;;;7.45;2.60;;;23.00;99.90;;;;;;4828621;29;20610;-75
2022/08/20 11:12:51;;;;;;;8.93;2.55;;;22.70;99.90;;;;;;4832985;29;20413;-75
2022/08/20 11:15:19;;;;;;;5.95;2.33;;;22.60;99.90;;;;;;4801741;29;20438;-75
2022/08/20 11:17:47;;;;;;;9.75;2.75;;;22.70;99.90;;;;;;4797430;29;20395;-75
2022/08/20 11:20:17;;;;;;;6.38;2.83;;;22.90;99.90;;;;;;4828926;29;20046;-76
2022/08/20 11:22:44;;;;;;;6.03;2.80;;;23.00;99.90;;;;;;4829776;29;20061;-76
2022/08/20 11:25:12;;;;;;;11.73;3.10;;;22.90;99.90;;;;;;4833132;29;20060;-75
2022/08/20 11:27:43;;;;;;;6.88;2.60;;;22.90;99.90;;;;;;4817042;29;20050;-76
2022/08/20 11:30:20;;;;;;;10.63;2.97;;;23.00;99.90;;;;;;4798074;29;20578;-76
2022/08/20 11:32:47;;;;;;;8.00;3.13;;;23.10;99.90;;;;;;4815343;29;20136;-76
2022/08/20 11:35:14;;;;;;;10.68;2.55;;;23.10;99.90;;;;;;4829075;29;20141;-76
2022/08/20 11:38:03;;;;;;;7.47;2.13;;;23.10;99.90;;;;;;4831513;29;20497;-76
2022/08/20 11:40:30;;;;;;;10.38;2.40;;;23.30;99.90;;;;;;4815449;29;20038;-76
2022/08/20 11:42:58;;;;;;;5.82;2.08;;;23.20;99.90;;;;;;4804403;29;20119;-77
2022/08/20 11:45:46;;;;;;;4.82;1.90;;;23.10;99.90;;;;;;4819009;29;20069;-76
2022/08/20 11:48:13;;;;;;;9.07;2.35;;;23.10;99.90;;;;;;4834484;29;20054;-76
2022/08/20 11:50:40;;;;;;;7.28;2.50;;;23.20;99.90;;;;;;4806080;29;20062;-76
2022/08/20 11:53:07;;;;;;;6.38;2.00;;;23.40;99.90;;;;;;4798405;29;20058;-76
2022/08/20 11:55:36;;;;;;;5.45;2.45;;;23.30;99.90;;;;;;4812712;29;20573;-76
2022/08/20 11:58:05;;;;;;;7.25;1.88;;;23.40;99.90;;;;;;4824252;29;20592;-77
2022/08/20 12:00:33;;;;;;;5.13;1.80;;;23.30;99.90;;;;;;4812213;29;20042;-76
2022/08/20 12:03:03;;;;;;;6.05;1.85;;;23.30;99.90;;;;;;4814202;29;20058;-76
2022/08/20 12:05:38;;;;;;;8.45;2.08;;;23.50;99.90;;;;;;4797077;29;20058;-77
2022/08/20 12:08:07;;;;;;;8.43;2.13;;;23.50;99.90;;;;;;4835247;29;20053;-76
2022/08/20 12:10:35;;;;;;;8.40;2.55;;;23.50;99.90;;;;;;4811988;29;20164;-76
2022/08/20 12:13:04;;;;;;;7.90;1.73;;;23.30;99.90;;;;;;4802011;29;20060;-76
2022/08/20 12:15:33;;;;;;;8.75;2.30;;;23.30;99.90;;;;;;4833846;29;20069;-76
2022/08/20 12:18:00;;;;;;;8.02;2.35;;;23.20;99.90;;;;;;4811626;29;20042;-77
2022/08/20 12:20:29;;;;;;;4.82;1.80;;;23.30;99.90;;;;;;4817623;29;20061;-76
2022/08/20 12:22:57;;;;;;;3.97;2.25;;;23.20;99.90;;;;;;4816053;29;20076;-76
2022/08/20 12:25:25;;;;;;;6.47;1.80;;;23.00;99.90;;;;;;4834116;29;20088;-77
2022/08/20 12:27:52;;;;;;;7.68;2.45;;;23.10;99.90;;;;;;4811880;29;20042;-76
2022/08/20 12:30:22;;;;;;;5.43;2.35;;;23.10;99.90;;;;;;4819248;29;20058;-77
2022/08/20 12:32:49;;;;;;;4.43;1.80;;;23.10;99.90;;;;;;4822071;29;20057;-76
2022/08/20 12:35:17;;;;;;;6.60;2.47;;;23.00;99.90;;;;;;4796842;29;20053;-78
2022/08/20 12:37:45;;;;;;;4.40;1.77;;;23.00;99.90;;;;;;4806086;29;20060;-77
2022/08/20 12:40:22;;;;;;;6.60;2.08;;;23.10;99.90;;;;;;4814992;29;20050;-77
2022/08/20 12:43:01;;;;;;;8.38;2.55;;;23.30;99.90;;;;;;4819238;29;20046;-76
2022/08/20 12:45:28;;;;;;;6.82;2.20;;;23.30;99.90;;;;;;4831935;29;20057;-76
2022/08/20 12:48:06;;;;;;;8.63;2.35;;;23.10;99.90;;;;;;4832529;29;20085;-76
2022/08/20 12:50:35;;;;;;;4.43;2.00;;;23.10;99.90;;;;;;4835047;29;20078;-75
2022/08/20 12:53:03;;;;;;;5.85;2.30;;;23.00;99.90;;;;;;4801488;29;20573;-78
2022/08/20 12:55:31;;;;;;;7.05;2.67;;;23.10;99.90;;;;;;4832018;29;20050;-76
2022/08/20 12:58:00;;;;;;;10.20;2.33;;;23.20;99.90;;;;;;4830844;29;20397;-75
2022/08/20 13:00:43;;;;;;;7.10;3.03;;;23.10;99.90;;;;;;4817877;29;20069;-78
2022/08/20 13:03:17;;;;;;;5.60;2.78;;;23.10;99.90;;;;;;4802361;29;20054;-77
2022/08/20 13:05:44;;;;;;;7.35;2.85;;;23.00;99.90;;;;;;4834507;29;20048;-78
2022/08/20 13:08:11;;;;;;;4.85;2.00;;;23.00;99.90;;;;;;4837444;29;20058;-77